sensor_id;sensor_type;location;lat;lon;timestamp;P1;durP1;ratioP1;P2;durP2;ratioP2
36597;SDS011;22607;49.550;11.940;2023-07-09T00:01:14;9.40;;;4.75;;
36597;SDS011;22607;49.550;11.940;2023-07-09T00:03:46;8.73;;;4.45;;
36597;SDS011;22607;49.550;11.940;2023-07-09T00:06:18;9.23;;;4.72;;
36597;SDS011;22607;49.550;11.940;2023-07-09T00:08:47;9.52;;;4.95;;
36597;SDS011;22607;49.550;11.940;2023-07-09T00:11:15;9.38;;;4.45;;
36597;SDS011;22607;49.550;11.940;2023-07-09T00:13:42;10.57;;;4.80;;
36597;SDS011;22607;49.550;11.940;2023-07-09T00:16:43;9.40;;;4.43;;
36597;SDS011;22607;49.550;11.940;2023-07-09T00:19:09;8.85;;;4.45;;
36597;SDS011;22607;49.550;11.940;2023-07-09T00:21:39;9.25;;;4.28;;
36597;SDS011;22607;49.550;11.940;2023-07-09T00:24:07;9.27;;;4.55;;
36597;SDS011;22607;49.550;11.940;2023-07-09T00:26:36;9.35;;;4.30;;
36597;SDS011;22607;49.550;11.940;2023-07-09T00:29:04;9.65;;;4.68;;
36597;SDS011;22607;49.550;11.940;2023-07-09T00:31:31;10.32;;;4.82;;
36597;SDS011;22607;49.550;11.940;2023-07-09T00:33:58;9.30;;;4.57;;
36597;SDS011;22607;49.550;11.940;2023-07-09T00:36:27;9.18;;;4.45;;
36597;SDS011;22607;49.550;11.940;2023-07-09T00:38:55;9.20;;;4.60;;
36597;SDS011;22607;49.550;11.940;2023-07-09T00:41:25;9.38;;;4.50;;
36597;SDS011;22607;49.550;11.940;2023-07-09T00:43:54;9.52;;;4.25;;
36597;SDS011;22607;49.550;11.940;2023-07-09T00:49:01;9.40;;;4.72;;
36597;SDS011;22607;49.550;11.940;2023-07-09T00:51:34;10.18;;;5.15;;
36597;SDS011;22607;49.550;11.940;2023-07-09T00:54:18;9.07;;;4.78;;
36597;SDS011;22607;49.550;11.940;2023-07-09T00:57:00;9.75;;;4.82;;
36597;SDS011;22607;49.550;11.940;2023-07-09T00:59:31;8.75;;;4.30;;
36597;SDS011;22607;49.550;11.940;2023-07-09T01:01:59;9.35;;;4.85;;
36597;SDS011;22607;49.550;11.940;2023-07-09T01:04:26;9.85;;;4.53;;
36597;SDS011;22607;49.550;11.940;2023-07-09T01:06:54;9.52;;;4.78;;
36597;SDS011;22607;49.550;11.940;2023-07-09T01:09:22;9.38;;;4.63;;
36597;SDS011;22607;49.550;11.940;2023-07-09T01:11:50;10.93;;;4.70;;
36597;SDS011;22607;49.550;11.940;2023-07-09T01:14:19;9.45;;;4.90;;
36597;SDS011;22607;49.550;11.940;2023-07-09T01:16:48;8.70;;;4.38;;
36597;SDS011;22607;49.550;11.940;2023-07-09T01:19:27;9.20;;;4.65;;
36597;SDS011;22607;49.550;11.940;2023-07-09T01:21:56;9.10;;;4.70;;
36597;SDS011;22607;49.550;11.940;2023-07-09T01:27:20;11.38;;;5.18;;
36597;SDS011;22607;49.550;11.940;2023-07-09T01:29:50;9.35;;;4.80;;
36597;SDS011;22607;49.550;11.940;2023-07-09T01:32:17;9.13;;;4.75;;
36597;SDS011;22607;49.550;11.940;2023-07-09T01:34:46;10.45;;;4.85;;
36597;SDS011;22607;49.550;11.940;2023-07-09T01:37:16;10.20;;;4.63;;
36597;SDS011;22607;49.550;11.940;2023-07-09T01:39:44;9.10;;;4.47;;
36597;SDS011;22607;49.550;11.940;2023-07-09T01:42:10;8.77;;;4.53;;
36597;SDS011;22607;49.550;11.940;2023-07-09T01:44:37;9.05;;;4.72;;
36597;SDS011;22607;49.550;11.940;2023-07-09T01:47:04;8.98;;;4.43;;
36597;SDS011;22607;49.550;11.940;2023-07-09T01:49:31;10.13;;;5.25;;
36597;SDS011;22607;49.550;11.940;2023-07-09T01:51:59;9.15;;;4.88;;
36597;SDS011;22607;49.550;11.940;2023-07-09T01:54:29;9.05;;;4.72;;
36597;SDS011;22607;49.550;11.940;2023-07-09T01:57:12;9.82;;;4.75;;
36597;SDS011;22607;49.550;11.940;2023-07-09T01:59:45;8.73;;;4.38;;
36597;SDS011;22607;49.550;11.940;2023-07-09T02:02:12;9.55;;;4.85;;
36597;SDS011;22607;49.550;11.940;2023-07-09T02:04:46;10.35;;;5.03;;
36597;SDS011;22607;49.550;11.940;2023-07-09T02:07:14;8.57;;;4.60;;
36597;SDS011;22607;49.550;11.940;2023-07-09T02:09:42;10.07;;;5.60;;
36597;SDS011;22607;49.550;11.940;2023-07-09T02:12:09;10.10;;;5.13;;
36597;SDS011;22607;49.550;11.940;2023-07-09T02:14:37;9.50;;;5.00;;
36597;SDS011;22607;49.550;11.940;2023-07-09T02:17:06;9.23;;;4.70;;
36597;SDS011;22607;49.550;11.940;2023-07-09T02:19:33;10.07;;;4.80;;
36597;SDS011;22607;49.550;11.940;2023-07-09T02:22:00;10.52;;;4.95;;
36597;SDS011;22607;49.550;11.940;2023-07-09T02:24:26;9.70;;;5.22;;
36597;SDS011;22607;49.550;11.940;2023-07-09T02:26:55;9.88;;;4.82;;
36597;SDS011;22607;49.550;11.940;2023-07-09T02:29:22;9.10;;;4.55;;
36597;SDS011;22607;49.550;11.940;2023-07-09T02:31:50;9.52;;;5.15;;
36597;SDS011;22607;49.550;11.940;2023-07-09T02:34:19;9.40;;;4.20;;
36597;SDS011;22607;49.550;11.940;2023-07-09T02:36:46;9.35;;;4.82;;
36597;SDS011;22607;49.550;11.940;2023-07-09T02:39:13;9.38;;;4.85;;
36597;SDS011;22607;49.550;11.940;2023-07-09T02:41:40;10.70;;;5.20;;
36597;SDS011;22607;49.550;11.940;2023-07-09T02:44:07;10.13;;;5.60;;
36597;SDS011;22607;49.550;11.940;2023-07-09T02:46:34;9.13;;;4.72;;
36597;SDS011;22607;49.550;11.940;2023-07-09T02:49:02;9.48;;;4.93;;
36597;SDS011;22607;49.550;11.940;2023-07-09T02:51:30;8.90;;;4.65;;
36597;SDS011;22607;49.550;11.940;2023-07-09T02:53:58;9.55;;;5.07;;
36597;SDS011;22607;49.550;11.940;2023-07-09T02:56:26;10.57;;;5.38;;
36597;SDS011;22607;49.550;11.940;2023-07-09T02:58:53;9.98;;;4.93;;
36597;SDS011;22607;49.550;11.940;2023-07-09T03:01:19;10.02;;;5.60;;
36597;SDS011;22607;49.550;11.940;2023-07-09T03:03:51;9.15;;;4.63;;
36597;SDS011;22607;49.550;11.940;2023-07-09T03:06:22;8.95;;;4.60;;
36597;SDS011;22607;49.550;11.940;2023-07-09T03:08:50;9.77;;;4.85;;
36597;SDS011;22607;49.550;11.940;2023-07-09T03:11:18;11.95;;;5.30;;
36597;SDS011;22607;49.550;11.940;2023-07-09T03:13:46;10.20;;;5.10;;
36597;SDS011;22607;49.550;11.940;2023-07-09T03:16:14;9.93;;;5.05;;
36597;SDS011;22607;49.550;11.940;2023-07-09T03:18:41;11.32;;;4.88;;
36597;SDS011;22607;49.550;11.940;2023-07-09T03:21:08;8.90;;;4.47;;
36597;SDS011;22607;49.550;11.940;2023-07-09T03:23:35;9.52;;;4.95;;
36597;SDS011;22607;49.550;11.940;2023-07-09T03:26:01;9.90;;;5.18;;
36597;SDS011;22607;49.550;11.940;2023-07-09T03:28:30;9.60;;;5.22;;
36597;SDS011;22607;49.550;11.940;2023-07-09T03:30:57;9.73;;;4.97;;
36597;SDS011;22607;49.550;11.940;2023-07-09T03:33:24;10.02;;;5.35;;
36597;SDS011;22607;49.550;11.940;2023-07-09T03:35:51;9.07;;;4.75;;
36597;SDS011;22607;49.550;11.940;2023-07-09T03:38:18;9.32;;;5.30;;
36597;SDS011;22607;49.550;11.940;2023-07-09T03:40:45;9.15;;;5.03;;
36597;SDS011;22607;49.550;11.940;2023-07-09T03:43:11;9.93;;;4.97;;
36597;SDS011;22607;49.550;11.940;2023-07-09T03:45:38;9.38;;;4.70;;
36597;SDS011;22607;49.550;11.940;2023-07-09T03:48:05;10.07;;;5.28;;
36597;SDS011;22607;49.550;11.940;2023-07-09T03:50:32;9.85;;;5.07;;
36597;SDS011;22607;49.550;11.940;2023-07-09T03:52:59;10.55;;;5.30;;
36597;SDS011;22607;49.550;11.940;2023-07-09T03:55:26;9.65;;;4.97;;
36597;SDS011;22607;49.550;11.940;2023-07-09T03:57:53;9.85;;;5.00;;
36597;SDS011;22607;49.550;11.940;2023-07-09T04:00:21;10.43;;;4.88;;
36597;SDS011;22607;49.550;11.940;2023-07-09T04:02:48;8.65;;;4.47;;
36597;SDS011;22607;49.550;11.940;2023-07-09T04:05:15;9.60;;;4.93;;
36597;SDS011;22607;49.550;11.940;2023-07-09T04:07:41;10.10;;;5.25;;
36597;SDS011;22607;49.550;11.940;2023-07-09T04:10:08;9.35;;;4.78;;
36597;SDS011;22607;49.550;11.940;2023-07-09T04:12:35;9.77;;;5.03;;
36597;SDS011;22607;49.550;11.940;2023-07-09T04:15:03;9.95;;;5.13;;
36597;SDS011;22607;49.550;11.940;2023-07-09T04:17:31;9.07;;;4.60;;
36597;SDS011;22607;49.550;11.940;2023-07-09T04:19:58;9.95;;;4.72;;
36597;SDS011;22607;49.550;11.940;2023-07-09T04:22:25;9.20;;;5.00;;
36597;SDS011;22607;49.550;11.940;2023-07-09T04:24:52;9.25;;;4.80;;
36597;SDS011;22607;49.550;11.940;2023-07-09T04:27:18;10.65;;;5.32;;
36597;SDS011;22607;49.550;11.940;2023-07-09T04:29:45;9.80;;;4.95;;
36597;SDS011;22607;49.550;11.940;2023-07-09T04:32:13;10.30;;;4.75;;
36597;SDS011;22607;49.550;11.940;2023-07-09T04:34:41;10.80;;;5.47;;
36597;SDS011;22607;49.550;11.940;2023-07-09T04:37:09;10.25;;;5.03;;
36597;SDS011;22607;49.550;11.940;2023-07-09T04:39:37;8.70;;;4.80;;
36597;SDS011;22607;49.550;11.940;2023-07-09T04:42:05;9.52;;;5.50;;
36597;SDS011;22607;49.550;11.940;2023-07-09T04:44:32;8.95;;;4.70;;
36597;SDS011;22607;49.550;11.940;2023-07-09T04:47:03;10.15;;;5.35;;
36597;SDS011;22607;49.550;11.940;2023-07-09T04:49:29;11.95;;;5.93;;
36597;SDS011;22607;49.550;11.940;2023-07-09T04:51:56;10.40;;;5.50;;
36597;SDS011;22607;49.550;11.940;2023-07-09T04:54:25;9.35;;;5.22;;
36597;SDS011;22607;49.550;11.940;2023-07-09T04:56:52;9.52;;;5.00;;
36597;SDS011;22607;49.550;11.940;2023-07-09T04:59:19;9.25;;;4.93;;
36597;SDS011;22607;49.550;11.940;2023-07-09T05:01:46;10.30;;;5.80;;
36597;SDS011;22607;49.550;11.940;2023-07-09T05:04:13;10.75;;;5.60;;
36597;SDS011;22607;49.550;11.940;2023-07-09T05:06:40;9.88;;;5.22;;
36597;SDS011;22607;49.550;11.940;2023-07-09T05:09:06;9.98;;;5.00;;
36597;SDS011;22607;49.550;11.940;2023-07-09T05:11:35;9.93;;;5.50;;
36597;SDS011;22607;49.550;11.940;2023-07-09T05:14:03;10.80;;;6.00;;
36597;SDS011;22607;49.550;11.940;2023-07-09T05:16:32;9.57;;;5.25;;
36597;SDS011;22607;49.550;11.940;2023-07-09T05:18:58;11.15;;;5.60;;
36597;SDS011;22607;49.550;11.940;2023-07-09T05:21:25;9.82;;;5.30;;
36597;SDS011;22607;49.550;11.940;2023-07-09T05:23:51;11.18;;;6.00;;
36597;SDS011;22607;49.550;11.940;2023-07-09T05:26:18;9.38;;;5.45;;
36597;SDS011;22607;49.550;11.940;2023-07-09T05:28:45;10.32;;;6.07;;
36597;SDS011;22607;49.550;11.940;2023-07-09T05:31:11;11.18;;;6.57;;
36597;SDS011;22607;49.550;11.940;2023-07-09T05:33:38;11.13;;;6.65;;
36597;SDS011;22607;49.550;11.940;2023-07-09T05:36:05;11.32;;;6.53;;
36597;SDS011;22607;49.550;11.940;2023-07-09T05:38:33;10.60;;;6.07;;
36597;SDS011;22607;49.550;11.940;2023-07-09T05:41:01;11.32;;;6.88;;
36597;SDS011;22607;49.550;11.940;2023-07-09T05:43:30;11.10;;;6.13;;
36597;SDS011;22607;49.550;11.940;2023-07-09T05:45:58;10.20;;;6.63;;
36597;SDS011;22607;49.550;11.940;2023-07-09T05:48:24;10.48;;;6.32;;
36597;SDS011;22607;49.550;11.940;2023-07-09T05:50:52;11.07;;;6.93;;
36597;SDS011;22607;49.550;11.940;2023-07-09T05:53:21;10.45;;;6.13;;
36597;SDS011;22607;49.550;11.940;2023-07-09T05:55:48;14.20;;;7.82;;
36597;SDS011;22607;49.550;11.940;2023-07-09T05:58:15;9.48;;;5.38;;
36597;SDS011;22607;49.550;11.940;2023-07-09T06:00:41;9.30;;;5.55;;
36597;SDS011;22607;49.550;11.940;2023-07-09T06:03:09;9.55;;;5.40;;
36597;SDS011;22607;49.550;11.940;2023-07-09T06:05:37;10.35;;;5.72;;
36597;SDS011;22607;49.550;11.940;2023-07-09T06:08:04;9.95;;;5.95;;
36597;SDS011;22607;49.550;11.940;2023-07-09T06:10:30;10.32;;;6.13;;
36597;SDS011;22607;49.550;11.940;2023-07-09T06:13:03;10.38;;;5.95;;
36597;SDS011;22607;49.550;11.940;2023-07-09T06:15:29;10.32;;;5.95;;
36597;SDS011;22607;49.550;11.940;2023-07-09T06:17:56;10.18;;;5.32;;
36597;SDS011;22607;49.550;11.940;2023-07-09T06:20:22;9.90;;;5.70;;
36597;SDS011;22607;49.550;11.940;2023-07-09T06:22:49;10.32;;;6.28;;
36597;SDS011;22607;49.550;11.940;2023-07-09T06:25:15;10.05;;;5.32;;
36597;SDS011;22607;49.550;11.940;2023-07-09T06:27:42;9.43;;;5.60;;
36597;SDS011;22607;49.550;11.940;2023-07-09T06:30:08;9.63;;;5.50;;
36597;SDS011;22607;49.550;11.940;2023-07-09T06:32:35;9.68;;;5.47;;
36597;SDS011;22607;49.550;11.940;2023-07-09T06:35:02;9.40;;;5.30;;
36597;SDS011;22607;49.550;11.940;2023-07-09T06:37:29;10.15;;;5.70;;
36597;SDS011;22607;49.550;11.940;2023-07-09T06:39:56;11.35;;;6.03;;
36597;SDS011;22607;49.550;11.940;2023-07-09T06:42:24;9.27;;;5.10;;
36597;SDS011;22607;49.550;11.940;2023-07-09T06:44:51;10.15;;;5.88;;
36597;SDS011;22607;49.550;11.940;2023-07-09T06:47:17;10.57;;;5.85;;
36597;SDS011;22607;49.550;11.940;2023-07-09T06:49:44;10.95;;;5.70;;
36597;SDS011;22607;49.550;11.940;2023-07-09T06:52:10;11.30;;;6.30;;
36597;SDS011;22607;49.550;11.940;2023-07-09T06:54:37;9.35;;;5.03;;
36597;SDS011;22607;49.550;11.940;2023-07-09T06:57:03;9.90;;;5.78;;
36597;SDS011;22607;49.550;11.940;2023-07-09T06:59:30;9.68;;;5.68;;
36597;SDS011;22607;49.550;11.940;2023-07-09T07:01:57;9.60;;;5.32;;
36597;SDS011;22607;49.550;11.940;2023-07-09T07:04:25;10.25;;;5.35;;
36597;SDS011;22607;49.550;11.940;2023-07-09T07:06:53;9.50;;;5.80;;
36597;SDS011;22607;49.550;11.940;2023-07-09T07:09:22;8.80;;;4.78;;
36597;SDS011;22607;49.550;11.940;2023-07-09T07:15:19;9.52;;;5.50;;
36597;SDS011;22607;49.550;11.940;2023-07-09T07:17:46;10.30;;;5.43;;
36597;SDS011;22607;49.550;11.940;2023-07-09T07:20:13;9.32;;;5.18;;
36597;SDS011;22607;49.550;11.940;2023-07-09T07:22:40;9.10;;;5.00;;
36597;SDS011;22607;49.550;11.940;2023-07-09T07:25:07;9.55;;;5.45;;
36597;SDS011;22607;49.550;11.940;2023-07-09T07:27:35;9.82;;;5.47;;
36597;SDS011;22607;49.550;11.940;2023-07-09T07:30:03;9.85;;;5.25;;
36597;SDS011;22607;49.550;11.940;2023-07-09T07:32:30;10.55;;;5.32;;
36597;SDS011;22607;49.550;11.940;2023-07-09T07:34:57;9.20;;;4.93;;
36597;SDS011;22607;49.550;11.940;2023-07-09T07:37:23;10.27;;;5.60;;
36597;SDS011;22607;49.550;11.940;2023-07-09T07:39:50;9.50;;;5.22;;
36597;SDS011;22607;49.550;11.940;2023-07-09T07:42:17;10.43;;;5.70;;
36597;SDS011;22607;49.550;11.940;2023-07-09T07:44:44;9.98;;;5.53;;
36597;SDS011;22607;49.550;11.940;2023-07-09T07:47:10;10.38;;;5.43;;
36597;SDS011;22607;49.550;11.940;2023-07-09T07:49:38;9.90;;;5.68;;
36597;SDS011;22607;49.550;11.940;2023-07-09T07:52:05;9.95;;;5.30;;
36597;SDS011;22607;49.550;11.940;2023-07-09T07:54:33;13.52;;;6.53;;
36597;SDS011;22607;49.550;11.940;2023-07-09T07:57:00;10.02;;;5.80;;
36597;SDS011;22607;49.550;11.940;2023-07-09T07:59:28;9.43;;;5.20;;
36597;SDS011;22607;49.550;11.940;2023-07-09T08:01:55;9.98;;;5.22;;
36597;SDS011;22607;49.550;11.940;2023-07-09T08:04:21;9.25;;;5.22;;
36597;SDS011;22607;49.550;11.940;2023-07-09T08:06:48;9.27;;;5.10;;
36597;SDS011;22607;49.550;11.940;2023-07-09T08:09:15;10.43;;;5.53;;
36597;SDS011;22607;49.550;11.940;2023-07-09T08:11:42;11.63;;;5.75;;
36597;SDS011;22607;49.550;11.940;2023-07-09T08:14:09;9.68;;;5.55;;
36597;SDS011;22607;49.550;11.940;2023-07-09T08:16:37;9.27;;;4.95;;
36597;SDS011;22607;49.550;11.940;2023-07-09T08:19:04;9.65;;;5.10;;
36597;SDS011;22607;49.550;11.940;2023-07-09T08:21:31;10.07;;;5.45;;
36597;SDS011;22607;49.550;11.940;2023-07-09T08:23:58;9.43;;;5.25;;
36597;SDS011;22607;49.550;11.940;2023-07-09T08:26:24;9.88;;;5.35;;
36597;SDS011;22607;49.550;11.940;2023-07-09T08:28:51;9.55;;;4.90;;
36597;SDS011;22607;49.550;11.940;2023-07-09T08:31:19;9.40;;;5.30;;
36597;SDS011;22607;49.550;11.940;2023-07-09T08:33:46;9.30;;;4.97;;
36597;SDS011;22607;49.550;11.940;2023-07-09T08:36:14;9.90;;;4.60;;
36597;SDS011;22607;49.550;11.940;2023-07-09T08:38:41;8.68;;;4.13;;
36597;SDS011;22607;49.550;11.940;2023-07-09T08:41:15;9.40;;;4.35;;
36597;SDS011;22607;49.550;11.940;2023-07-09T08:46:54;10.57;;;4.30;;
36597;SDS011;22607;49.550;11.940;2023-07-09T08:49:58;8.18;;;3.22;;
36597;SDS011;22607;49.550;11.940;2023-07-09T08:54:57;9.15;;;3.45;;
36597;SDS011;22607;49.550;11.940;2023-07-09T08:57:32;7.95;;;3.13;;
36597;SDS011;22607;49.550;11.940;2023-07-09T09:00:17;8.70;;;3.20;;
36597;SDS011;22607;49.550;11.940;2023-07-09T09:02:50;7.60;;;3.10;;
36597;SDS011;22607;49.550;11.940;2023-07-09T09:05:22;7.55;;;3.00;;
36597;SDS011;22607;49.550;11.940;2023-07-09T09:07:52;8.18;;;2.95;;
36597;SDS011;22607;49.550;11.940;2023-07-09T09:10:47;7.82;;;3.38;;
36597;SDS011;22607;49.550;11.940;2023-07-09T09:13:18;9.15;;;3.35;;
36597;SDS011;22607;49.550;11.940;2023-07-09T09:15:50;8.40;;;3.50;;
36597;SDS011;22607;49.550;11.940;2023-07-09T09:20:52;7.95;;;3.05;;
36597;SDS011;22607;49.550;11.940;2023-07-09T09:23:25;8.40;;;3.00;;
36597;SDS011;22607;49.550;11.940;2023-07-09T09:26:02;8.18;;;3.38;;
36597;SDS011;22607;49.550;11.940;2023-07-09T09:28:40;8.60;;;3.33;;
36597;SDS011;22607;49.550;11.940;2023-07-09T09:31:08;8.25;;;3.03;;
36597;SDS011;22607;49.550;11.940;2023-07-09T09:36:11;8.10;;;2.50;;
36597;SDS011;22607;49.550;11.940;2023-07-09T09:38:41;8.68;;;3.40;;
36597;SDS011;22607;49.550;11.940;2023-07-09T09:41:15;8.98;;;3.33;;
36597;SDS011;22607;49.550;11.940;2023-07-09T09:43:48;9.15;;;3.25;;
36597;SDS011;22607;49.550;11.940;2023-07-09T09:46:18;8.77;;;3.45;;
36597;SDS011;22607;49.550;11.940;2023-07-09T09:48:52;8.68;;;3.70;;
36597;SDS011;22607;49.550;11.940;2023-07-09T09:51:22;9.43;;;3.75;;
36597;SDS011;22607;49.550;11.940;2023-07-09T09:53:51;9.38;;;3.85;;
36597;SDS011;22607;49.550;11.940;2023-07-09T09:56:26;9.75;;;3.60;;
36597;SDS011;22607;49.550;11.940;2023-07-09T09:59:00;9.65;;;3.78;;
36597;SDS011;22607;49.550;11.940;2023-07-09T10:01:28;8.90;;;3.80;;
36597;SDS011;22607;49.550;11.940;2023-07-09T10:03:58;8.10;;;3.97;;
36597;SDS011;22607;49.550;11.940;2023-07-09T10:09:04;9.93;;;3.30;;
36597;SDS011;22607;49.550;11.940;2023-07-09T10:11:38;9.23;;;3.85;;
36597;SDS011;22607;49.550;11.940;2023-07-09T10:14:22;7.45;;;3.22;;
36597;SDS011;22607;49.550;11.940;2023-07-09T10:17:16;7.88;;;3.30;;
36597;SDS011;22607;49.550;11.940;2023-07-09T10:19:52;9.10;;;3.50;;
36597;SDS011;22607;49.550;11.940;2023-07-09T10:27:48;9.15;;;3.30;;
36597;SDS011;22607;49.550;11.940;2023-07-09T10:33:25;8.45;;;3.95;;
36597;SDS011;22607;49.550;11.940;2023-07-09T10:36:26;8.98;;;3.75;;
36597;SDS011;22607;49.550;11.940;2023-07-09T10:39:05;9.48;;;3.97;;
36597;SDS011;22607;49.550;11.940;2023-07-09T10:41:37;8.97;;;3.60;;
36597;SDS011;22607;49.550;11.940;2023-07-09T10:44:39;8.13;;;3.75;;
36597;SDS011;22607;49.550;11.940;2023-07-09T10:47:07;9.18;;;3.70;;
36597;SDS011;22607;49.550;11.940;2023-07-09T10:49:39;9.27;;;3.70;;
36597;SDS011;22607;49.550;11.940;2023-07-09T10:54:39;8.63;;;3.30;;
36597;SDS011;22607;49.550;11.940;2023-07-09T10:57:22;9.35;;;4.20;;
36597;SDS011;22607;49.550;11.940;2023-07-09T10:59:54;8.85;;;3.95;;
36597;SDS011;22607;49.550;11.940;2023-07-09T11:02:33;8.13;;;3.55;;
36597;SDS011;22607;49.550;11.940;2023-07-09T11:05:02;8.95;;;3.80;;
36597;SDS011;22607;49.550;11.940;2023-07-09T11:10:52;7.40;;;3.10;;
36597;SDS011;22607;49.550;11.940;2023-07-09T11:13:28;8.43;;;3.53;;
36597;SDS011;22607;49.550;11.940;2023-07-09T11:16:20;7.93;;;3.40;;
36597;SDS011;22607;49.550;11.940;2023-07-09T11:19:00;9.95;;;3.67;;
36597;SDS011;22607;49.550;11.940;2023-07-09T11:21:30;9.18;;;3.72;;
36597;SDS011;22607;49.550;11.940;2023-07-09T11:23:57;8.70;;;3.50;;
36597;SDS011;22607;49.550;11.940;2023-07-09T11:26:29;9.38;;;3.65;;
36597;SDS011;22607;49.550;11.940;2023-07-09T11:31:37;9.30;;;3.63;;
36597;SDS011;22607;49.550;11.940;2023-07-09T11:36:32;7.28;;;3.40;;
36597;SDS011;22607;49.550;11.940;2023-07-09T11:39:00;7.75;;;3.38;;
36597;SDS011;22607;49.550;11.940;2023-07-09T11:44:02;8.80;;;3.65;;
36597;SDS011;22607;49.550;11.940;2023-07-09T11:46:36;8.13;;;3.53;;
36597;SDS011;22607;49.550;11.940;2023-07-09T11:51:51;9.65;;;4.47;;
36597;SDS011;22607;49.550;11.940;2023-07-09T11:54:20;9.15;;;3.70;;
36597;SDS011;22607;49.550;11.940;2023-07-09T11:56:54;7.93;;;3.63;;
36597;SDS011;22607;49.550;11.940;2023-07-09T11:59:26;8.57;;;3.67;;
36597;SDS011;22607;49.550;11.940;2023-07-09T12:01:53;9.43;;;3.58;;
36597;SDS011;22607;49.550;11.940;2023-07-09T12:04:22;8.10;;;3.60;;
36597;SDS011;22607;49.550;11.940;2023-07-09T12:06:57;8.45;;;3.90;;
36597;SDS011;22607;49.550;11.940;2023-07-09T12:09:31;8.75;;;3.55;;
36597;SDS011;22607;49.550;11.940;2023-07-09T12:12:03;10.48;;;3.75;;
36597;SDS011;22607;49.550;11.940;2023-07-09T12:14:30;9.25;;;3.65;;
36597;SDS011;22607;49.550;11.940;2023-07-09T12:16:57;8.25;;;3.67;;
36597;SDS011;22607;49.550;11.940;2023-07-09T12:19:24;8.10;;;3.97;;
36597;SDS011;22607;49.550;11.940;2023-07-09T12:21:52;10.05;;;3.63;;
36597;SDS011;22607;49.550;11.940;2023-07-09T12:24:27;8.85;;;3.47;;
36597;SDS011;22607;49.550;11.940;2023-07-09T12:27:00;9.85;;;4.32;;
36597;SDS011;22607;49.550;11.940;2023-07-09T12:29:29;9.18;;;4.07;;
36597;SDS011;22607;49.550;11.940;2023-07-09T12:32:03;9.30;;;3.92;;
36597;SDS011;22607;49.550;11.940;2023-07-09T12:34:36;9.18;;;3.80;;
36597;SDS011;22607;49.550;11.940;2023-07-09T12:37:03;8.68;;;3.90;;
36597;SDS011;22607;49.550;11.940;2023-07-09T12:39:31;8.38;;;3.72;;
36597;SDS011;22607;49.550;11.940;2023-07-09T12:42:00;8.57;;;3.53;;
36597;SDS011;22607;49.550;11.940;2023-07-09T12:44:29;8.63;;;3.50;;
36597;SDS011;22607;49.550;11.940;2023-07-09T12:47:00;8.88;;;3.70;;
36597;SDS011;22607;49.550;11.940;2023-07-09T12:49:30;9.40;;;3.80;;
36597;SDS011;22607;49.550;11.940;2023-07-09T12:52:09;8.40;;;3.70;;
36597;SDS011;22607;49.550;11.940;2023-07-09T12:54:55;9.45;;;3.70;;
36597;SDS011;22607;49.550;11.940;2023-07-09T12:57:26;7.50;;;3.30;;
36597;SDS011;22607;49.550;11.940;2023-07-09T12:59:55;7.82;;;3.60;;
36597;SDS011;22607;49.550;11.940;2023-07-09T13:04:59;9.15;;;4.03;;
36597;SDS011;22607;49.550;11.940;2023-07-09T13:07:32;8.25;;;3.80;;
36597;SDS011;22607;49.550;11.940;2023-07-09T13:12:50;8.05;;;3.60;;
36597;SDS011;22607;49.550;11.940;2023-07-09T13:18:08;8.30;;;3.67;;
36597;SDS011;22607;49.550;11.940;2023-07-09T13:20:38;8.60;;;3.42;;
36597;SDS011;22607;49.550;11.940;2023-07-09T13:23:26;8.32;;;3.72;;
36597;SDS011;22607;49.550;11.940;2023-07-09T13:25:54;9.10;;;3.50;;
36597;SDS011;22607;49.550;11.940;2023-07-09T13:28:27;7.53;;;3.45;;
36597;SDS011;22607;49.550;11.940;2023-07-09T13:30:59;8.43;;;3.90;;
36597;SDS011;22607;49.550;11.940;2023-07-09T13:33:28;8.18;;;3.85;;
36597;SDS011;22607;49.550;11.940;2023-07-09T13:35:55;7.93;;;3.45;;
36597;SDS011;22607;49.550;11.940;2023-07-09T13:38:22;8.35;;;3.75;;
36597;SDS011;22607;49.550;11.940;2023-07-09T13:40:53;8.05;;;3.65;;
36597;SDS011;22607;49.550;11.940;2023-07-09T13:43:25;8.27;;;3.97;;
36597;SDS011;22607;49.550;11.940;2023-07-09T13:45:56;7.82;;;3.28;;
36597;SDS011;22607;49.550;11.940;2023-07-09T13:48:24;7.95;;;3.40;;
36597;SDS011;22607;49.550;11.940;2023-07-09T13:50:52;8.82;;;3.42;;
36597;SDS011;22607;49.550;11.940;2023-07-09T13:53:21;7.88;;;3.30;;
36597;SDS011;22607;49.550;11.940;2023-07-09T13:55:53;9.93;;;3.55;;
36597;SDS011;22607;49.550;11.940;2023-07-09T13:58:20;8.70;;;3.60;;
36597;SDS011;22607;49.550;11.940;2023-07-09T14:00:49;8.23;;;3.20;;
36597;SDS011;22607;49.550;11.940;2023-07-09T14:03:22;7.78;;;2.90;;
36597;SDS011;22607;49.550;11.940;2023-07-09T14:08:18;8.30;;;3.50;;
36597;SDS011;22607;49.550;11.940;2023-07-09T14:10:48;8.82;;;3.60;;
36597;SDS011;22607;49.550;11.940;2023-07-09T14:13:19;7.80;;;2.88;;
36597;SDS011;22607;49.550;11.940;2023-07-09T14:15:48;8.05;;;3.55;;
36597;SDS011;22607;49.550;11.940;2023-07-09T14:18:18;8.48;;;3.45;;
36597;SDS011;22607;49.550;11.940;2023-07-09T14:20:47;8.07;;;3.47;;
36597;SDS011;22607;49.550;11.940;2023-07-09T14:23:16;8.35;;;3.60;;
36597;SDS011;22607;49.550;11.940;2023-07-09T14:25:44;8.20;;;3.40;;
36597;SDS011;22607;49.550;11.940;2023-07-09T14:28:13;9.07;;;3.67;;
36597;SDS011;22607;49.550;11.940;2023-07-09T14:30:41;8.55;;;3.35;;
36597;SDS011;22607;49.550;11.940;2023-07-09T14:33:11;7.77;;;3.17;;
36597;SDS011;22607;49.550;11.940;2023-07-09T14:35:40;8.98;;;3.53;;
36597;SDS011;22607;49.550;11.940;2023-07-09T14:38:23;9.20;;;3.90;;
36597;SDS011;22607;49.550;11.940;2023-07-09T14:40:53;11.57;;;4.10;;
36597;SDS011;22607;49.550;11.940;2023-07-09T14:43:22;8.52;;;3.67;;
36597;SDS011;22607;49.550;11.940;2023-07-09T14:45:48;7.80;;;3.40;;
36597;SDS011;22607;49.550;11.940;2023-07-09T14:48:16;8.40;;;3.70;;
36597;SDS011;22607;49.550;11.940;2023-07-09T14:50:47;10.20;;;3.53;;
36597;SDS011;22607;49.550;11.940;2023-07-09T14:53:16;9.75;;;3.42;;
36597;SDS011;22607;49.550;11.940;2023-07-09T14:55:47;8.02;;;3.10;;
36597;SDS011;22607;49.550;11.940;2023-07-09T14:58:15;9.18;;;3.75;;
36597;SDS011;22607;49.550;11.940;2023-07-09T15:00:44;8.85;;;3.45;;
36597;SDS011;22607;49.550;11.940;2023-07-09T15:03:22;8.75;;;3.70;;
36597;SDS011;22607;49.550;11.940;2023-07-09T15:05:51;9.15;;;3.53;;
36597;SDS011;22607;49.550;11.940;2023-07-09T15:08:20;7.78;;;3.50;;
36597;SDS011;22607;49.550;11.940;2023-07-09T15:10:51;8.98;;;4.20;;
36597;SDS011;22607;49.550;11.940;2023-07-09T15:13:27;8.40;;;3.53;;
36597;SDS011;22607;49.550;11.940;2023-07-09T15:15:58;8.57;;;3.90;;
36597;SDS011;22607;49.550;11.940;2023-07-09T15:18:26;8.70;;;3.35;;
36597;SDS011;22607;49.550;11.940;2023-07-09T15:20:57;7.70;;;3.03;;
36597;SDS011;22607;49.550;11.940;2023-07-09T15:23:28;8.20;;;3.45;;
36597;SDS011;22607;49.550;11.940;2023-07-09T15:25:56;8.75;;;3.50;;
36597;SDS011;22607;49.550;11.940;2023-07-09T15:28:25;8.13;;;3.53;;
36597;SDS011;22607;49.550;11.940;2023-07-09T15:30:52;9.10;;;3.20;;
36597;SDS011;22607;49.550;11.940;2023-07-09T15:33:19;9.07;;;3.40;;
36597;SDS011;22607;49.550;11.940;2023-07-09T15:35:48;7.72;;;3.20;;
36597;SDS011;22607;49.550;11.940;2023-07-09T15:40:45;9.15;;;3.60;;
36597;SDS011;22607;49.550;11.940;2023-07-09T15:43:14;8.98;;;3.80;;
36597;SDS011;22607;49.550;11.940;2023-07-09T15:45:42;8.38;;;3.35;;